createdAt,value
2023-03-29T00:00:09.598Z,92.71
2023-03-29T00:02:37.545Z,92.72
2023-03-29T00:05:06.725Z,93.39
2023-03-29T00:07:34.698Z,93.35
2023-03-29T00:10:04.538Z,93.45
2023-03-29T00:12:32.639Z,94.00
2023-03-29T00:15:01.936Z,93.94
2023-03-29T00:17:29.804Z,94.51
2023-03-29T00:19:57.618Z,94.54
2023-03-29T00:22:25.899Z,94.34
2023-03-29T00:24:54.253Z,94.42
2023-03-29T00:27:22.187Z,94.42
2023-03-29T00:29:49.987Z,94.20
2023-03-29T00:32:19.202Z,93.88
2023-03-29T00:34:50.752Z,94.32
2023-03-29T00:37:19.814Z,94.22
2023-03-29T00:39:48.256Z,94.20
2023-03-29T00:42:18.578Z,94.51
2023-03-29T00:45:02.675Z,94.46
2023-03-29T00:47:37.889Z,94.37
2023-03-29T00:50:13.218Z,94.27
2023-03-29T00:52:42.709Z,94.58
2023-03-29T00:55:15.889Z,94.19
2023-03-29T00:57:46.814Z,93.54
2023-03-29T01:00:20.837Z,94.05
2023-03-29T01:02:54.257Z,93.79
2023-03-29T01:05:27.189Z,94.02
2023-03-29T01:08:00.153Z,94.88
2023-03-29T01:10:34.024Z,95.25
2023-03-29T01:13:06.135Z,96.47
2023-03-29T01:15:34.846Z,96.56
2023-03-29T01:18:04.088Z,97.39
2023-03-29T01:20:44.694Z,98.19
2023-03-29T01:23:38.160Z,99.20
2023-03-29T01:26:18.894Z,99.56
2023-03-29T01:28:52.636Z,100.00
2023-03-29T01:31:25.281Z,100.00
2023-03-29T01:33:59.795Z,100.00
2023-03-29T01:36:31.425Z,100.00
2023-03-29T01:39:05.007Z,100.00
2023-03-29T01:41:39.741Z,100.00
2023-03-29T01:44:15.336Z,100.00
2023-03-29T01:46:47.778Z,100.00
2023-03-29T01:49:22.516Z,100.00
2023-03-29T01:51:54.806Z,100.00
2023-03-29T01:54:27.241Z,100.00
2023-03-29T01:56:57.035Z,100.00
2023-03-29T01:59:29.709Z,100.00
2023-03-29T02:02:01.071Z,100.00
2023-03-29T02:04:34.249Z,100.00
2023-03-29T02:07:04.428Z,100.00
2023-03-29T02:09:34.646Z,100.00
2023-03-29T02:12:04.446Z,100.00
2023-03-29T02:14:33.620Z,100.00
2023-03-29T02:17:20.273Z,100.00
2023-03-29T02:19:51.175Z,100.00
2023-03-29T02:22:24.839Z,100.00
2023-03-29T02:24:59.208Z,100.00
2023-03-29T02:27:29.607Z,100.00
2023-03-29T02:29:59.345Z,100.00
2023-03-29T02:32:34.460Z,100.00
2023-03-29T02:35:08.458Z,100.00
2023-03-29T02:37:40.570Z,100.00
2023-03-29T02:40:12.736Z,100.00
2023-03-29T02:42:40.982Z,100.00
2023-03-29T02:45:13.809Z,100.00
2023-03-29T02:47:45.533Z,100.00
2023-03-29T02:50:13.934Z,100.00
2023-03-29T02:52:48.533Z,100.00
2023-03-29T02:55:18.776Z,100.00
2023-03-29T02:57:46.619Z,100.00
2023-03-29T03:00:20.146Z,100.00
2023-03-29T03:02:49.045Z,100.00
2023-03-29T03:05:17.522Z,100.00
2023-03-29T03:07:46.189Z,100.00
2023-03-29T03:10:14.151Z,100.00
2023-03-29T03:12:41.975Z,100.00
2023-03-29T03:15:10.547Z,100.00
2023-03-29T03:17:40.374Z,100.00
2023-03-29T03:20:13.037Z,100.00
2023-03-29T03:22:42.269Z,100.00
2023-03-29T03:25:13.349Z,100.00
2023-03-29T03:27:41.332Z,100.00
2023-03-29T03:30:10.959Z,100.00
2023-03-29T03:32:40.207Z,100.00
2023-03-29T03:35:08.783Z,100.00
2023-03-29T03:37:38.336Z,100.00
2023-03-29T03:40:11.847Z,100.00
2023-03-29T03:42:40.103Z,100.00
2023-03-29T03:45:09.846Z,100.00
2023-03-29T03:47:38.529Z,100.00
2023-03-29T03:50:09.653Z,100.00
2023-03-29T03:52:37.381Z,100.00
2023-03-29T03:55:05.653Z,100.00
2023-03-29T03:57:37.462Z,100.00
2023-03-29T04:00:19.351Z,100.00
2023-03-29T04:02:48.255Z,100.00
2023-03-29T04:05:18.098Z,100.00
2023-03-29T04:07:45.839Z,100.00
2023-03-29T04:10:13.661Z,100.00
2023-03-29T04:12:41.447Z,100.00
2023-03-29T04:15:10.505Z,100.00
2023-03-29T04:17:38.738Z,100.00
2023-03-29T04:20:11.627Z,100.00
2023-03-29T04:22:41.057Z,100.00
2023-03-29T04:25:10.398Z,100.00
2023-03-29T04:27:38.306Z,100.00
2023-03-29T04:30:08.131Z,100.00
2023-03-29T04:32:36.236Z,100.00
2023-03-29T04:35:04.842Z,100.00
2023-03-29T04:37:32.833Z,100.00
2023-03-29T04:40:02.532Z,100.00
2023-03-29T04:42:30.263Z,100.00
2023-03-29T04:44:58.517Z,100.00
2023-03-29T04:47:29.886Z,100.00
2023-03-29T04:49:58.036Z,100.00
2023-03-29T04:52:26.521Z,100.00
2023-03-29T04:54:54.388Z,100.00
2023-03-29T04:57:23.690Z,100.00
2023-03-29T04:59:51.458Z,100.00
2023-03-29T05:02:20.083Z,100.00
2023-03-29T05:04:47.952Z,100.00
2023-03-29T05:07:17.677Z,100.00
2023-03-29T05:09:45.414Z,100.00
2023-03-29T05:12:13.270Z,100.00
2023-03-29T05:14:42.362Z,100.00
2023-03-29T05:17:10.314Z,100.00
2023-03-29T05:19:38.404Z,100.00
2023-03-29T05:22:06.644Z,100.00
2023-03-29T05:24:34.379Z,100.00
2023-03-29T05:27:02.334Z,100.00
2023-03-29T05:29:32.713Z,100.00
2023-03-29T05:32:01.972Z,100.00
2023-03-29T05:34:31.443Z,100.00
2023-03-29T05:37:00.878Z,100.00
2023-03-29T05:39:28.681Z,100.00
2023-03-29T05:41:56.521Z,100.00
2023-03-29T05:44:24.244Z,100.00
2023-03-29T05:46:51.972Z,100.00
2023-03-29T05:49:21.501Z,100.00
2023-03-29T05:51:49.292Z,100.00
2023-03-29T05:54:17.043Z,100.00
2023-03-29T05:56:44.912Z,100.00
2023-03-29T05:59:13.768Z,100.00
2023-03-29T06:01:41.783Z,100.00
2023-03-29T06:04:10.742Z,99.93
2023-03-29T06:06:40.639Z,99.35
2023-03-29T06:09:09.443Z,99.15
2023-03-29T06:11:37.367Z,98.66
2023-03-29T06:14:05.144Z,97.95
2023-03-29T06:16:33.102Z,97.67
2023-03-29T06:19:00.917Z,97.35
2023-03-29T06:21:28.641Z,96.59
2023-03-29T06:23:57.781Z,95.90
2023-03-29T06:26:27.708Z,95.60
2023-03-29T06:28:55.446Z,95.68
2023-03-29T06:31:23.280Z,94.79
2023-03-29T06:33:51.151Z,94.52
2023-03-29T06:36:20.204Z,93.61
2023-03-29T06:38:47.977Z,93.10
2023-03-29T06:41:17.210Z,91.93
2023-03-29T06:43:45.080Z,91.33
2023-03-29T06:46:13.375Z,90.59
2023-03-29T06:48:42.018Z,89.78
2023-03-29T06:51:10.014Z,89.02
2023-03-29T06:53:38.065Z,88.62
2023-03-29T06:56:09.291Z,88.44
2023-03-29T06:58:39.150Z,87.76
2023-03-29T07:01:07.768Z,86.90
2023-03-29T07:03:36.344Z,86.43
2023-03-29T07:06:09.966Z,86.29
2023-03-29T07:08:43.391Z,86.46
2023-03-29T07:11:13.192Z,85.56
2023-03-29T07:13:43.120Z,84.96
2023-03-29T07:16:12.698Z,85.38
2023-03-29T07:18:41.828Z,85.42
2023-03-29T07:21:11.528Z,85.56
2023-03-29T07:23:39.508Z,85.89
2023-03-29T07:26:08.505Z,86.94
2023-03-29T07:28:37.395Z,87.36
2023-03-29T07:31:11.060Z,88.33
2023-03-29T07:33:39.867Z,89.35
2023-03-29T07:36:09.210Z,89.74
2023-03-29T07:38:37.093Z,90.37
2023-03-29T07:41:06.696Z,91.57
2023-03-29T07:43:34.788Z,91.65
2023-03-29T07:46:03.112Z,92.20
2023-03-29T07:48:32.427Z,92.25
2023-03-29T07:51:00.993Z,92.85
2023-03-29T07:53:29.718Z,92.89
2023-03-29T07:55:57.871Z,92.62
2023-03-29T07:58:25.659Z,92.73
2023-03-29T08:00:53.555Z,93.27
2023-03-29T08:03:21.706Z,94.18
2023-03-29T08:05:51.524Z,94.40
2023-03-29T08:08:19.271Z,95.14
2023-03-29T08:10:47.100Z,95.87
2023-03-29T08:13:14.821Z,96.18
2023-03-29T08:15:46.304Z,96.56
2023-03-29T08:18:14.204Z,96.87
2023-03-29T08:20:42.603Z,97.99
2023-03-29T08:23:11.773Z,98.53
2023-03-29T08:25:39.647Z,99.24
2023-03-29T08:28:07.400Z,99.38
2023-03-29T08:30:35.245Z,100.00
2023-03-29T08:33:03.142Z,100.00
2023-03-29T08:35:31.029Z,100.00
2023-03-29T08:37:58.784Z,100.00
2023-03-29T08:40:30.028Z,100.00
2023-03-29T08:43:21.303Z,100.00
2023-03-29T08:46:00.057Z,100.00
2023-03-29T08:48:30.931Z,100.00
2023-03-29T08:51:02.685Z,100.00
2023-03-29T08:53:34.755Z,100.00
2023-03-29T08:56:08.643Z,100.00
2023-03-29T08:58:39.148Z,100.00
2023-03-29T09:01:11.332Z,100.00
2023-03-29T09:03:45.935Z,100.00
2023-03-29T09:06:14.755Z,100.00
2023-03-29T09:08:45.080Z,100.00
2023-03-29T09:11:29.853Z,100.00
2023-03-29T09:14:10.932Z,100.00
2023-03-29T09:16:43.251Z,100.00
2023-03-29T09:19:32.263Z,100.00
2023-03-29T09:22:06.765Z,100.00
2023-03-29T09:24:45.467Z,100.00
2023-03-29T09:27:25.381Z,100.00
2023-03-29T09:30:10.815Z,100.00
2023-03-29T09:32:45.129Z,100.00
2023-03-29T09:35:19.181Z,100.00
2023-03-29T09:37:50.026Z,100.00
2023-03-29T09:40:21.622Z,100.00
2023-03-29T09:42:54.859Z,100.00
2023-03-29T09:45:23.722Z,100.00
2023-03-29T09:47:56.384Z,100.00
2023-03-29T09:50:32.043Z,100.00
2023-03-29T09:53:00.635Z,100.00
2023-03-29T09:55:32.366Z,100.00
2023-03-29T09:58:03.470Z,100.00
2023-03-29T10:00:31.277Z,100.00
2023-03-29T10:03:00.445Z,100.00
2023-03-29T10:05:37.855Z,100.00
2023-03-29T10:08:19.735Z,100.00
2023-03-29T10:10:48.383Z,100.00
2023-03-29T10:13:23.852Z,100.00
2023-03-29T10:16:01.849Z,100.00
2023-03-29T10:18:31.576Z,100.00
2023-03-29T10:21:01.288Z,100.00
2023-03-29T10:23:32.715Z,100.00
2023-03-29T10:26:00.842Z,100.00
2023-03-29T10:28:31.055Z,100.00
2023-03-29T10:31:03.740Z,100.00
2023-03-29T10:33:34.646Z,100.00
2023-03-29T10:36:06.401Z,100.00
2023-03-29T10:38:37.104Z,100.00
2023-03-29T10:41:10.001Z,100.00
2023-03-29T10:43:43.701Z,100.00
2023-03-29T10:46:14.405Z,100.00
2023-03-29T10:48:47.242Z,100.00
2023-03-29T10:51:15.834Z,100.00
2023-03-29T10:53:44.106Z,100.00
2023-03-29T10:56:40.271Z,100.00
2023-03-29T10:59:23.103Z,100.00
2023-03-29T11:02:02.950Z,100.00
2023-03-29T11:04:38.934Z,100.00
2023-03-29T11:07:27.240Z,100.00
2023-03-29T11:10:05.846Z,100.00
2023-03-29T11:12:44.632Z,100.00
2023-03-29T11:15:37.614Z,100.00
2023-03-29T11:18:25.162Z,100.00
2023-03-29T11:21:01.657Z,100.00
2023-03-29T11:23:44.180Z,100.00
2023-03-29T11:26:19.035Z,100.00
2023-03-29T11:28:53.986Z,100.00
2023-03-29T11:31:38.380Z,100.00
2023-03-29T11:34:21.835Z,100.00
2023-03-29T11:36:55.114Z,100.00
2023-03-29T11:39:31.577Z,100.00
2023-03-29T11:42:06.776Z,100.00
2023-03-29T11:44:37.023Z,100.00
2023-03-29T11:47:13.997Z,100.00
2023-03-29T11:49:46.627Z,100.00
2023-03-29T11:52:19.252Z,100.00
2023-03-29T11:54:53.360Z,100.00
2023-03-29T11:57:25.384Z,100.00
2023-03-29T11:59:57.993Z,100.00
2023-03-29T12:02:32.911Z,100.00
2023-03-29T12:05:07.601Z,100.00
2023-03-29T12:07:40.940Z,100.00
2023-03-29T12:10:17.675Z,100.00
2023-03-29T12:12:49.316Z,99.85
2023-03-29T12:15:21.521Z,100.00
2023-03-29T12:17:59.138Z,99.59
2023-03-29T12:20:32.255Z,100.00
2023-03-29T12:23:00.747Z,100.00
2023-03-29T12:25:32.950Z,99.38
2023-03-29T12:28:23.157Z,99.84
2023-03-29T12:31:02.080Z,98.60
2023-03-29T12:34:04.084Z,96.79
2023-03-29T12:36:47.326Z,95.59
2023-03-29T12:39:17.707Z,93.21
2023-03-29T12:41:49.006Z,92.36
2023-03-29T12:44:21.407Z,93.80
2023-03-29T12:46:52.915Z,93.86
2023-03-29T12:49:29.140Z,92.49
2023-03-29T12:52:00.079Z,91.98
2023-03-29T12:54:31.696Z,91.05
2023-03-29T12:57:02.571Z,90.77
2023-03-29T12:59:40.636Z,91.44
2023-03-29T13:02:28.194Z,92.05
2023-03-29T13:05:01.087Z,93.17
2023-03-29T13:07:32.356Z,92.42
2023-03-29T13:10:01.508Z,91.41
2023-03-29T13:12:36.806Z,91.67
2023-03-29T13:15:07.996Z,92.43
2023-03-29T13:17:46.268Z,91.55
2023-03-29T13:20:39.295Z,89.56
2023-03-29T13:23:24.091Z,90.27
2023-03-29T13:26:09.485Z,90.91
2023-03-29T13:28:47.132Z,90.51
2023-03-29T13:31:27.992Z,89.39
2023-03-29T13:34:03.633Z,89.04
2023-03-29T13:36:54.395Z,90.02
2023-03-29T13:39:25.562Z,88.38
2023-03-29T13:42:06.227Z,86.17
2023-03-29T13:44:44.298Z,88.05
2023-03-29T13:47:30.045Z,88.60
2023-03-29T13:50:01.545Z,87.85
2023-03-29T13:52:34.955Z,87.19
2023-03-29T13:55:08.639Z,86.66
2023-03-29T13:57:40.885Z,85.86
2023-03-29T14:00:18.152Z,85.40
2023-03-29T14:02:50.662Z,85.77
2023-03-29T14:05:22.662Z,86.77
2023-03-29T14:07:54.465Z,86.40
2023-03-29T14:10:26.800Z,86.62
2023-03-29T14:12:56.628Z,86.22
2023-03-29T14:15:26.655Z,87.22
2023-03-29T14:17:58.986Z,87.65
2023-03-29T14:20:29.618Z,87.22
2023-03-29T14:22:58.857Z,87.00
2023-03-29T14:25:27.263Z,85.02
2023-03-29T14:27:55.004Z,84.18
2023-03-29T14:30:28.281Z,84.46
2023-03-29T14:32:56.798Z,85.02
2023-03-29T14:35:30.687Z,83.92
2023-03-29T14:38:00.398Z,84.35
2023-03-29T14:40:28.581Z,85.36
2023-03-29T14:42:56.408Z,84.89
2023-03-29T14:45:24.795Z,84.79
2023-03-29T14:47:53.098Z,84.34
2023-03-29T14:50:25.037Z,84.44
2023-03-29T14:52:53.565Z,84.75
2023-03-29T14:55:24.847Z,82.99
2023-03-29T14:57:55.700Z,82.32
2023-03-29T15:00:28.164Z,81.86
2023-03-29T15:02:57.985Z,82.13
2023-03-29T15:05:33.783Z,82.25
2023-03-29T15:08:02.864Z,81.67
2023-03-29T15:10:35.040Z,80.52
2023-03-29T15:13:03.775Z,78.70
2023-03-29T15:15:34.616Z,78.50
2023-03-29T15:18:03.960Z,78.66
2023-03-29T15:20:35.660Z,78.91
2023-03-29T15:23:05.364Z,78.63
2023-03-29T15:25:37.183Z,77.75
2023-03-29T15:28:05.202Z,77.23
2023-03-29T15:30:35.950Z,77.33
2023-03-29T15:33:21.304Z,77.71
2023-03-29T15:35:52.903Z,75.59
2023-03-29T15:38:27.520Z,73.16
2023-03-29T15:41:00.232Z,75.36
2023-03-29T15:43:28.265Z,75.86
2023-03-29T15:45:56.026Z,76.69
2023-03-29T15:48:25.693Z,77.78
2023-03-29T15:50:54.621Z,78.64
2023-03-29T15:53:23.678Z,78.36
2023-03-29T15:55:53.989Z,79.21
2023-03-29T15:58:25.656Z,78.41
2023-03-29T16:00:59.237Z,77.34
2023-03-29T16:03:28.290Z,77.11
2023-03-29T16:05:57.035Z,74.84
2023-03-29T16:08:25.333Z,73.69
2023-03-29T16:10:53.183Z,72.08
2023-03-29T16:13:21.070Z,71.76
2023-03-29T16:15:50.154Z,72.85
2023-03-29T16:18:17.924Z,72.86
2023-03-29T16:20:46.596Z,72.32
2023-03-29T16:23:14.369Z,73.03
2023-03-29T16:25:42.687Z,73.05
2023-03-29T16:28:10.656Z,72.92
2023-03-29T16:30:39.019Z,72.55
2023-03-29T16:33:08.352Z,73.38
2023-03-29T16:35:39.865Z,73.34
2023-03-29T16:38:09.107Z,73.79
2023-03-29T16:40:37.637Z,74.01
2023-03-29T16:43:05.500Z,74.46
2023-03-29T16:45:33.234Z,74.91
2023-03-29T16:48:01.720Z,75.24
2023-03-29T16:50:30.841Z,75.83
2023-03-29T16:52:58.609Z,76.50
2023-03-29T16:55:26.447Z,76.89
2023-03-29T16:57:54.221Z,77.72
2023-03-29T17:00:23.090Z,77.72
2023-03-29T17:02:51.033Z,77.90
2023-03-29T17:05:19.803Z,78.10
2023-03-29T17:07:48.869Z,78.56
2023-03-29T17:10:16.649Z,78.93
2023-03-29T17:12:44.384Z,79.09
2023-03-29T17:15:12.262Z,79.28
2023-03-29T17:17:40.210Z,79.95
2023-03-29T17:20:11.834Z,80.30
2023-03-29T17:22:39.996Z,80.85
2023-03-29T17:25:10.028Z,81.28
2023-03-29T17:27:38.465Z,81.49
2023-03-29T17:30:07.386Z,82.17
2023-03-29T17:32:35.676Z,82.32
2023-03-29T17:35:03.876Z,82.80
2023-03-29T17:37:31.786Z,82.23
2023-03-29T17:39:59.558Z,82.74
2023-03-29T17:42:28.888Z,82.96
2023-03-29T17:44:56.702Z,83.51
2023-03-29T17:47:24.458Z,83.49
2023-03-29T17:49:52.592Z,84.01
2023-03-29T17:52:20.422Z,84.48
2023-03-29T17:54:48.159Z,85.55
2023-03-29T17:57:16.275Z,85.96
2023-03-29T17:59:45.490Z,86.39
2023-03-29T18:02:17.774Z,86.95
2023-03-29T18:04:46.149Z,88.03
2023-03-29T18:07:14.059Z,87.89
2023-03-29T18:09:43.111Z,88.74
2023-03-29T18:12:11.017Z,88.99
2023-03-29T18:14:38.789Z,89.20
2023-03-29T18:17:07.951Z,89.63
2023-03-29T18:19:35.830Z,90.00
2023-03-29T18:22:04.019Z,90.00
2023-03-29T18:24:31.915Z,90.29
2023-03-29T18:26:59.818Z,90.63
2023-03-29T18:29:27.722Z,91.58
2023-03-29T18:31:55.591Z,92.03
2023-03-29T18:34:25.025Z,92.65
2023-03-29T18:36:53.657Z,93.62
2023-03-29T18:39:21.400Z,93.99
2023-03-29T18:41:49.335Z,94.51
2023-03-29T18:44:17.343Z,95.72
2023-03-29T18:46:45.536Z,96.31
2023-03-29T18:49:13.632Z,96.92
2023-03-29T18:51:44.102Z,97.36
2023-03-29T18:54:11.846Z,97.48
2023-03-29T18:56:39.667Z,97.21
2023-03-29T18:59:07.455Z,97.50
2023-03-29T19:01:35.354Z,97.28
2023-03-29T19:04:03.335Z,97.39
2023-03-29T19:06:31.708Z,96.84
2023-03-29T19:09:02.069Z,97.28
2023-03-29T19:11:30.575Z,97.66
2023-03-29T19:13:58.420Z,98.41
2023-03-29T19:16:27.493Z,98.85
2023-03-29T19:18:55.473Z,98.89
2023-03-29T19:21:23.256Z,99.57
2023-03-29T19:23:54.211Z,97.92
2023-03-29T19:26:23.395Z,96.53
2023-03-29T19:28:51.222Z,95.37
2023-03-29T19:31:19.146Z,94.82
2023-03-29T19:33:47.405Z,94.85
2023-03-29T19:36:15.236Z,95.42
2023-03-29T19:38:43.581Z,95.22
2023-03-29T19:41:12.124Z,95.12
2023-03-29T19:43:41.267Z,95.78
2023-03-29T19:46:11.671Z,96.41
2023-03-29T19:48:41.034Z,96.58
2023-03-29T19:51:09.100Z,97.09
2023-03-29T19:53:38.639Z,97.69
2023-03-29T19:56:07.746Z,98.17
2023-03-29T19:58:36.150Z,97.88
2023-03-29T20:01:06.047Z,98.34
2023-03-29T20:03:34.383Z,98.03
2023-03-29T20:06:02.666Z,97.90
2023-03-29T20:08:30.540Z,98.03
2023-03-29T20:10:59.582Z,97.82
2023-03-29T20:13:37.696Z,98.03
2023-03-29T20:16:09.227Z,98.64
2023-03-29T20:18:38.592Z,98.73
2023-03-29T20:21:06.874Z,99.44
2023-03-29T20:23:35.296Z,99.96
2023-03-29T20:26:03.176Z,100.00
2023-03-29T20:28:31.482Z,100.00
2023-03-29T20:31:04.132Z,100.00
2023-03-29T20:33:33.693Z,100.00
2023-03-29T20:36:01.559Z,100.00
2023-03-29T20:38:29.423Z,100.00
2023-03-29T20:40:57.203Z,100.00
2023-03-29T20:43:25.034Z,100.00
2023-03-29T20:45:54.269Z,100.00
2023-03-29T20:48:24.736Z,100.00
2023-03-29T20:50:54.212Z,100.00
2023-03-29T20:53:21.960Z,100.00
2023-03-29T20:55:49.805Z,100.00
2023-03-29T20:58:17.638Z,100.00
2023-03-29T21:00:46.794Z,100.00
2023-03-29T21:03:14.699Z,100.00
2023-03-29T21:05:43.366Z,100.00
2023-03-29T21:08:12.464Z,100.00
2023-03-29T21:10:42.424Z,100.00
2023-03-29T21:13:10.219Z,100.00
2023-03-29T21:15:38.107Z,100.00
2023-03-29T21:18:06.807Z,100.00
2023-03-29T21:20:37.584Z,100.00
2023-03-29T21:23:05.326Z,100.00
2023-03-29T21:25:34.536Z,100.00
2023-03-29T21:28:02.391Z,100.00
2023-03-29T21:30:31.996Z,100.00
2023-03-29T21:33:00.470Z,100.00
2023-03-29T21:35:28.393Z,100.00
2023-03-29T21:37:56.369Z,100.00
2023-03-29T21:40:24.116Z,100.00
2023-03-29T21:42:53.324Z,100.00
2023-03-29T21:45:21.093Z,100.00
2023-03-29T21:47:48.852Z,100.00
2023-03-29T21:50:16.933Z,100.00
2023-03-29T21:52:44.681Z,100.00
2023-03-29T21:55:12.941Z,100.00
2023-03-29T21:57:40.791Z,100.00
2023-03-29T22:00:12.727Z,100.00
2023-03-29T22:02:41.453Z,100.00
2023-03-29T22:05:09.967Z,100.00
2023-03-29T22:07:45.546Z,100.00
2023-03-29T22:10:13.892Z,100.00
2023-03-29T22:12:41.704Z,100.00
2023-03-29T22:15:12.505Z,100.00
2023-03-29T22:17:41.393Z,100.00
2023-03-29T22:20:12.750Z,100.00
2023-03-29T22:22:40.783Z,100.00
2023-03-29T22:25:09.432Z,100.00
2023-03-29T22:27:37.578Z,100.00
2023-03-29T22:30:06.825Z,100.00
2023-03-29T22:32:36.323Z,100.00
2023-03-29T22:35:04.711Z,100.00
2023-03-29T22:37:32.507Z,100.00
2023-03-29T22:40:00.497Z,100.00
2023-03-29T22:42:28.219Z,100.00
2023-03-29T22:44:56.035Z,100.00
2023-03-29T22:47:23.828Z,100.00
2023-03-29T22:49:53.055Z,100.00
2023-03-29T22:52:20.926Z,100.00
2023-03-29T22:54:48.648Z,100.00
2023-03-29T22:57:16.720Z,100.00
2023-03-29T22:59:44.618Z,100.00
2023-03-29T23:02:12.360Z,100.00
2023-03-29T23:04:40.231Z,100.00
2023-03-29T23:07:09.474Z,100.00
2023-03-29T23:09:37.583Z,100.00
2023-03-29T23:12:05.774Z,100.00
2023-03-29T23:14:33.906Z,100.00
2023-03-29T23:17:01.659Z,100.00
2023-03-29T23:19:29.424Z,100.00
2023-03-29T23:21:57.474Z,100.00
2023-03-29T23:24:26.644Z,100.00
2023-03-29T23:26:55.294Z,100.00
2023-03-29T23:29:23.111Z,100.00
2023-03-29T23:31:51.029Z,100.00
2023-03-29T23:34:20.240Z,100.00
2023-03-29T23:36:48.059Z,100.00
2023-03-29T23:39:16.121Z,100.00
2023-03-29T23:41:45.592Z,100.00
2023-03-29T23:44:13.398Z,100.00
2023-03-29T23:46:41.924Z,100.00
2023-03-29T23:49:10.559Z,100.00
2023-03-29T23:51:39.232Z,100.00
2023-03-29T23:54:07.149Z,100.00
2023-03-29T23:56:34.939Z,100.00
2023-03-29T23:59:04.465Z,100.00
